createdAt,value
2022-12-16T00:01:27.259Z,-8.40
2022-12-16T00:03:56.384Z,-8.40
2022-12-16T00:06:25.986Z,-8.50
2022-12-16T00:08:52.836Z,-8.60
2022-12-16T00:11:20.581Z,-8.70
2022-12-16T00:13:47.601Z,-8.40
2022-12-16T00:16:17.411Z,-8.20
2022-12-16T00:18:45.508Z,-8.10
2022-12-16T00:21:12.944Z,-8.00
2022-12-16T00:23:41.767Z,-8.00
2022-12-16T00:26:09.290Z,-7.90
2022-12-16T00:28:36.772Z,-7.80
2022-12-16T00:31:04.016Z,-7.70
2022-12-16T00:33:31.336Z,-7.70
2022-12-16T00:35:58.112Z,-7.60
2022-12-16T00:38:26.454Z,-7.80
2022-12-16T00:40:53.160Z,-7.90
2022-12-16T00:43:20.565Z,-8.10
2022-12-16T00:45:48.542Z,-7.90
2022-12-16T00:48:15.620Z,-8.00
2022-12-16T00:50:48.786Z,-8.10
2022-12-16T00:53:15.420Z,-8.30
2022-12-16T00:55:42.288Z,-8.10
2022-12-16T00:58:09.213Z,-8.20
2022-12-16T01:00:35.931Z,-8.20
2022-12-16T01:03:02.659Z,-8.10
2022-12-16T01:05:29.868Z,-8.20
2022-12-16T01:07:57.063Z,-8.30
2022-12-16T01:10:24.968Z,-8.40
2022-12-16T01:12:51.948Z,-8.40
2022-12-16T01:15:19.133Z,-8.60
2022-12-16T01:17:46.071Z,-8.50
2022-12-16T01:20:13.311Z,-8.40
2022-12-16T01:22:40.020Z,-8.40
2022-12-16T01:25:07.044Z,-8.50
2022-12-16T01:27:33.811Z,-8.60
2022-12-16T01:30:00.520Z,-8.70
2022-12-16T01:32:27.156Z,-8.70
2022-12-16T01:34:55.706Z,-8.80
2022-12-16T01:37:23.646Z,-8.90
2022-12-16T01:39:50.828Z,-8.90
2022-12-16T01:42:20.663Z,-8.90
2022-12-16T01:44:49.790Z,-8.90
2022-12-16T01:47:27.872Z,-8.90
2022-12-16T01:50:01.181Z,-8.90
2022-12-16T01:52:36.165Z,-8.90
2022-12-16T01:55:20.528Z,-8.70
2022-12-16T01:58:07.592Z,-8.40
2022-12-16T02:00:37.337Z,-8.30
2022-12-16T02:03:04.940Z,-8.40
2022-12-16T02:05:34.371Z,-8.40
2022-12-16T02:08:02.556Z,-8.30
2022-12-16T02:10:34.014Z,-8.50
2022-12-16T02:13:25.666Z,-8.70
2022-12-16T02:15:52.837Z,-8.70
2022-12-16T02:18:49.762Z,-8.80
2022-12-16T02:21:31.904Z,-8.60
2022-12-16T02:24:26.221Z,-8.70
2022-12-16T02:27:22.396Z,-8.70
2022-12-16T02:30:04.597Z,-8.70
2022-12-16T02:32:51.436Z,-8.80
2022-12-16T02:35:41.862Z,-8.90
2022-12-16T02:38:34.727Z,-9.00
2022-12-16T02:41:04.514Z,-9.00
2022-12-16T02:43:51.877Z,-9.10
2022-12-16T02:46:23.865Z,-9.20
2022-12-16T02:48:50.553Z,-9.10
2022-12-16T02:51:18.084Z,-8.70
2022-12-16T02:53:46.640Z,-8.60
2022-12-16T02:56:39.240Z,-8.80
2022-12-16T02:59:16.986Z,-8.80
2022-12-16T03:01:52.710Z,-8.90
2022-12-16T03:04:41.455Z,-8.90
2022-12-16T03:07:13.240Z,-9.00
2022-12-16T03:09:42.059Z,-9.10
2022-12-16T03:12:13.241Z,-9.20
2022-12-16T03:14:44.001Z,-9.20
2022-12-16T03:17:12.800Z,-9.20
2022-12-16T03:19:41.628Z,-9.20
2022-12-16T03:22:16.394Z,-9.00
2022-12-16T03:24:43.334Z,-8.80
2022-12-16T03:27:13.619Z,-8.70
2022-12-16T03:29:55.696Z,-8.60
2022-12-16T03:32:28.984Z,-8.80
2022-12-16T03:35:01.821Z,-8.80
2022-12-16T03:37:33.785Z,-8.90
2022-12-16T03:40:03.248Z,-8.90
2022-12-16T03:42:30.633Z,-9.00
2022-12-16T03:44:57.564Z,-9.10
2022-12-16T03:47:27.862Z,-9.00
2022-12-16T03:49:54.552Z,-9.00
2022-12-16T03:52:21.719Z,-9.10
2022-12-16T03:54:48.341Z,-8.90
2022-12-16T03:57:15.749Z,-8.70
2022-12-16T03:59:43.173Z,-8.60
2022-12-16T04:02:10.167Z,-8.70
2022-12-16T04:04:37.015Z,-8.80
2022-12-16T04:07:21.849Z,-8.80
2022-12-16T04:09:49.701Z,-8.60
2022-12-16T04:12:35.399Z,-8.30
2022-12-16T04:15:20.812Z,-8.40
2022-12-16T04:18:06.227Z,-8.30
2022-12-16T04:20:55.208Z,-8.50
2022-12-16T04:23:42.498Z,-8.50
2022-12-16T04:26:09.517Z,-8.40
2022-12-16T04:28:36.339Z,-8.30
2022-12-16T04:31:03.743Z,-8.40
2022-12-16T04:33:50.351Z,-8.40
2022-12-16T04:36:35.473Z,-8.50
2022-12-16T04:39:20.879Z,-8.40
2022-12-16T04:42:06.119Z,-8.10
2022-12-16T04:44:51.499Z,-8.40
2022-12-16T04:47:37.008Z,-8.60
2022-12-16T04:50:22.769Z,-8.80
2022-12-16T04:53:11.537Z,-9.00
2022-12-16T04:56:03.601Z,-9.00
2022-12-16T04:58:49.651Z,-9.10
2022-12-16T05:01:34.889Z,-9.20
2022-12-16T05:04:20.331Z,-9.20
2022-12-16T05:07:05.596Z,-9.20
2022-12-16T05:09:50.762Z,-9.20
2022-12-16T05:12:36.152Z,-9.10
2022-12-16T05:15:21.688Z,-8.80
2022-12-16T05:18:07.025Z,-8.90
2022-12-16T05:20:52.499Z,-9.00
2022-12-16T05:23:38.404Z,-9.10
2022-12-16T05:26:23.656Z,-9.00
2022-12-16T05:29:09.211Z,-9.10
2022-12-16T05:31:54.316Z,-8.90
2022-12-16T05:34:39.590Z,-8.60
2022-12-16T05:37:25.291Z,-8.30
2022-12-16T05:40:10.583Z,-8.30
2022-12-16T05:42:55.753Z,-8.30
2022-12-16T05:45:41.512Z,-8.30
2022-12-16T05:48:26.929Z,-8.20
2022-12-16T05:51:12.103Z,-8.30
2022-12-16T05:53:57.506Z,-8.40
2022-12-16T05:56:42.762Z,-8.40
2022-12-16T05:59:28.238Z,-8.50
2022-12-16T06:02:13.645Z,-8.80
2022-12-16T06:04:59.312Z,-8.70
2022-12-16T06:07:44.561Z,-8.50
2022-12-16T06:10:29.985Z,-8.70
2022-12-16T06:13:15.418Z,-8.80
2022-12-16T06:16:06.742Z,-9.00
2022-12-16T06:18:53.902Z,-9.00
2022-12-16T06:21:39.568Z,-9.00
2022-12-16T06:24:25.343Z,-9.00
2022-12-16T06:27:10.460Z,-8.70
2022-12-16T06:29:55.920Z,-8.60
2022-12-16T06:32:41.363Z,-8.70
2022-12-16T06:35:27.340Z,-8.60
2022-12-16T06:38:12.799Z,-8.70
2022-12-16T06:40:57.907Z,-8.90
2022-12-16T06:43:43.137Z,-9.00
2022-12-16T06:46:28.495Z,-9.10
2022-12-16T06:49:13.866Z,-9.30
2022-12-16T06:51:59.118Z,-9.30
2022-12-16T06:54:44.395Z,-9.20
2022-12-16T06:57:29.478Z,-9.10
2022-12-16T07:00:14.821Z,-8.80
2022-12-16T07:03:00.558Z,-8.80
2022-12-16T07:05:46.066Z,-9.00
2022-12-16T07:08:31.343Z,-9.10
2022-12-16T07:11:17.500Z,-9.10
2022-12-16T07:14:03.861Z,-9.20
2022-12-16T07:16:49.321Z,-9.10
2022-12-16T07:19:34.909Z,-8.90
2022-12-16T07:22:20.209Z,-8.70
2022-12-16T07:25:05.342Z,-8.70
2022-12-16T07:27:50.451Z,-8.90
2022-12-16T07:30:35.764Z,-9.00
2022-12-16T07:33:21.069Z,-9.10
2022-12-16T07:36:06.358Z,-8.80
2022-12-16T07:38:51.824Z,-8.80
2022-12-16T07:41:36.991Z,-8.70
2022-12-16T07:44:22.830Z,-8.80
2022-12-16T07:47:07.989Z,-8.90
2022-12-16T07:49:53.682Z,-8.90
2022-12-16T07:52:40.958Z,-8.80
2022-12-16T07:55:26.490Z,-8.90
2022-12-16T07:58:12.019Z,-8.90
2022-12-16T08:00:58.062Z,-9.00
2022-12-16T08:03:43.312Z,-9.00
2022-12-16T08:06:28.597Z,-9.00
2022-12-16T08:09:14.064Z,-8.80
2022-12-16T08:11:59.363Z,-8.50
2022-12-16T08:14:44.838Z,-8.50
2022-12-16T08:17:30.141Z,-8.20
2022-12-16T08:20:15.669Z,-8.20
2022-12-16T08:23:00.945Z,-8.30
2022-12-16T08:25:48.350Z,-8.30
2022-12-16T08:28:33.810Z,-8.30
2022-12-16T08:31:19.105Z,-8.10
2022-12-16T08:34:04.306Z,-7.90
2022-12-16T08:36:49.535Z,-7.70
2022-12-16T08:39:34.768Z,-7.60
2022-12-16T08:42:19.983Z,-7.80
2022-12-16T08:45:05.204Z,-7.70
2022-12-16T08:47:50.426Z,-7.60
2022-12-16T08:50:35.811Z,-7.20
2022-12-16T08:53:22.813Z,-6.80
2022-12-16T08:56:08.085Z,-6.40
2022-12-16T08:58:54.317Z,-6.00
2022-12-16T09:01:41.296Z,-5.50
2022-12-16T09:04:26.575Z,-5.20
2022-12-16T09:07:11.970Z,-5.00
2022-12-16T09:09:57.109Z,-4.60
2022-12-16T09:12:42.546Z,-4.20
2022-12-16T09:15:28.517Z,-3.80
2022-12-16T09:18:14.631Z,-3.50
2022-12-16T09:21:00.726Z,-3.30
2022-12-16T09:23:46.352Z,-2.80
2022-12-16T09:26:31.775Z,-2.70
2022-12-16T09:29:17.406Z,-2.40
2022-12-16T09:32:02.451Z,-2.00
2022-12-16T09:34:48.391Z,-2.10
2022-12-16T09:37:33.563Z,-2.00
2022-12-16T09:40:18.715Z,-1.60
2022-12-16T09:43:07.237Z,-1.40
2022-12-16T09:46:07.709Z,-1.20
2022-12-16T09:48:59.575Z,-1.00
2022-12-16T09:51:45.737Z,-0.70
2022-12-16T09:54:35.456Z,-0.50
2022-12-16T09:57:23.151Z,-0.50
2022-12-16T10:00:30.759Z,-0.30
2022-12-16T10:03:18.346Z,-0.20
2022-12-16T10:06:20.180Z,-0.20
2022-12-16T10:09:34.414Z,-0.20
2022-12-16T10:12:49.391Z,0.00
2022-12-16T10:15:51.341Z,0.20
2022-12-16T10:19:08.715Z,0.10
2022-12-16T10:22:25.400Z,0.50
2022-12-16T10:25:21.725Z,0.50
2022-12-16T10:28:14.994Z,0.60
2022-12-16T10:31:00.384Z,0.90
2022-12-16T10:33:47.839Z,1.00
2022-12-16T10:36:37.233Z,1.10
2022-12-16T10:39:39.945Z,1.20
2022-12-16T10:42:37.010Z,1.00
2022-12-16T10:45:23.424Z,1.10
2022-12-16T10:48:09.391Z,1.00
2022-12-16T10:50:54.974Z,1.10
2022-12-16T10:53:45.408Z,1.00
2022-12-16T10:56:56.212Z,1.20
2022-12-16T10:59:43.031Z,1.40
2022-12-16T11:02:40.007Z,1.40
2022-12-16T11:05:46.838Z,1.40
2022-12-16T11:08:51.668Z,1.10
2022-12-16T11:11:46.601Z,1.00
2022-12-16T11:14:40.115Z,1.00
2022-12-16T11:17:44.297Z,1.00
2022-12-16T11:20:37.563Z,1.20
2022-12-16T11:23:41.176Z,1.20
2022-12-16T11:26:33.099Z,1.40
2022-12-16T11:29:36.480Z,1.40
2022-12-16T11:32:30.973Z,1.50
2022-12-16T11:35:19.210Z,1.70
2022-12-16T11:38:05.751Z,1.80
2022-12-16T11:40:52.303Z,1.90
2022-12-16T11:43:39.101Z,1.90
2022-12-16T11:46:29.943Z,1.90
2022-12-16T11:49:25.277Z,2.00
2022-12-16T11:52:35.243Z,2.00
2022-12-16T11:56:04.889Z,2.20
2022-12-16T11:58:59.417Z,2.40
2022-12-16T12:01:55.372Z,2.40
2022-12-16T12:04:41.690Z,2.40
2022-12-16T12:07:57.368Z,2.30
2022-12-16T12:10:52.041Z,2.10
2022-12-16T12:13:57.910Z,2.00
2022-12-16T12:17:07.598Z,1.80
2022-12-16T12:20:20.117Z,1.70
2022-12-16T12:23:05.533Z,1.70
2022-12-16T12:26:10.910Z,1.70
2022-12-16T12:29:17.740Z,1.70
2022-12-16T12:32:29.385Z,1.70
2022-12-16T12:35:58.557Z,1.70
2022-12-16T12:39:32.609Z,1.70
2022-12-16T12:42:43.107Z,1.70
2022-12-16T12:45:48.739Z,1.70
2022-12-16T12:49:03.913Z,1.70
2022-12-16T12:52:18.171Z,1.60
2022-12-16T12:55:12.084Z,1.70
2022-12-16T12:58:02.501Z,1.80
2022-12-16T13:00:51.059Z,1.80
2022-12-16T13:04:03.970Z,1.80
2022-12-16T13:06:50.203Z,1.90
2022-12-16T13:09:54.545Z,1.90
2022-12-16T13:12:42.072Z,1.90
2022-12-16T13:15:49.098Z,1.80
2022-12-16T13:18:49.081Z,1.50
2022-12-16T13:21:57.059Z,1.30
2022-12-16T13:24:45.215Z,1.30
2022-12-16T13:27:33.745Z,1.20
2022-12-16T13:30:30.743Z,1.10
2022-12-16T13:33:23.672Z,1.10
2022-12-16T13:36:17.537Z,1.10
2022-12-16T13:39:08.106Z,1.10
2022-12-16T13:41:53.356Z,1.10
2022-12-16T13:44:57.714Z,1.10
2022-12-16T13:47:59.981Z,1.00
2022-12-16T13:51:00.017Z,1.00
2022-12-16T13:53:52.532Z,0.90
2022-12-16T13:56:44.726Z,0.90
2022-12-16T13:59:41.261Z,0.90
2022-12-16T14:02:50.719Z,0.80
2022-12-16T14:05:46.732Z,0.80
2022-12-16T14:08:43.202Z,0.70
2022-12-16T14:11:53.138Z,0.60
2022-12-16T14:15:01.698Z,0.60
2022-12-16T14:17:58.657Z,0.70
2022-12-16T14:21:09.365Z,0.80
2022-12-16T14:24:06.886Z,0.80
2022-12-16T14:26:56.015Z,0.70
2022-12-16T14:29:46.022Z,0.70
2022-12-16T14:32:52.742Z,0.70
2022-12-16T14:35:43.974Z,0.60
2022-12-16T14:38:42.638Z,0.50
2022-12-16T14:41:33.116Z,0.50
2022-12-16T14:44:18.735Z,0.40
2022-12-16T14:47:11.658Z,0.30
2022-12-16T14:50:11.276Z,0.20
2022-12-16T14:52:58.099Z,0.10
2022-12-16T14:55:52.301Z,0.00
2022-12-16T14:58:39.960Z,-0.10
2022-12-16T15:01:33.627Z,-0.20
2022-12-16T15:04:21.890Z,-0.30
2022-12-16T15:07:10.622Z,-0.40
2022-12-16T15:10:03.171Z,-0.60
2022-12-16T15:12:53.910Z,-0.70
2022-12-16T15:15:52.880Z,-0.90
2022-12-16T15:18:51.188Z,-1.10
2022-12-16T15:21:36.868Z,-1.30
2022-12-16T15:24:45.395Z,-1.30
2022-12-16T15:27:39.890Z,-1.40
2022-12-16T15:30:54.131Z,-1.60
2022-12-16T15:34:00.359Z,-1.70
2022-12-16T15:36:51.264Z,-1.80
2022-12-16T15:39:54.272Z,-1.80
2022-12-16T15:42:45.750Z,-1.80
2022-12-16T15:45:44.903Z,-1.80
2022-12-16T15:48:31.842Z,-1.80
2022-12-16T15:51:17.183Z,-2.10
2022-12-16T15:54:02.623Z,-2.20
2022-12-16T15:57:03.415Z,-2.30
2022-12-16T15:59:54.803Z,-2.30
2022-12-16T16:02:46.238Z,-2.40
2022-12-16T16:05:41.726Z,-2.60
2022-12-16T16:08:29.718Z,-2.70
2022-12-16T16:11:15.508Z,-2.80
2022-12-16T16:14:06.196Z,-2.90
2022-12-16T16:16:52.615Z,-3.00
2022-12-16T16:19:44.552Z,-3.20
2022-12-16T16:22:31.868Z,-3.20
2022-12-16T16:25:17.169Z,-3.30
2022-12-16T16:28:02.816Z,-3.30
2022-12-16T16:30:48.559Z,-3.50
2022-12-16T16:33:34.286Z,-3.60
2022-12-16T16:36:19.759Z,-3.60
2022-12-16T16:39:05.019Z,-3.70
2022-12-16T16:41:50.192Z,-3.80
2022-12-16T16:44:35.679Z,-3.80
2022-12-16T16:47:20.950Z,-3.90
2022-12-16T16:50:06.494Z,-4.00
2022-12-16T16:52:51.654Z,-4.10
2022-12-16T16:55:39.875Z,-4.20
2022-12-16T16:58:58.511Z,-4.30
2022-12-16T17:01:43.863Z,-4.30
2022-12-16T17:04:49.034Z,-4.40
2022-12-16T17:07:34.367Z,-4.40
2022-12-16T17:10:19.964Z,-4.60
2022-12-16T17:13:05.247Z,-4.60
2022-12-16T17:15:54.780Z,-4.70
2022-12-16T17:18:45.700Z,-4.70
2022-12-16T17:21:32.258Z,-4.80
2022-12-16T17:24:17.495Z,-4.80
2022-12-16T17:27:03.137Z,-4.90
2022-12-16T17:29:48.802Z,-5.00
2022-12-16T17:32:34.097Z,-5.00
2022-12-16T17:35:19.468Z,-5.20
2022-12-16T17:38:04.730Z,-5.20
2022-12-16T17:40:50.156Z,-5.20
2022-12-16T17:43:35.919Z,-5.20
2022-12-16T17:46:26.542Z,-5.30
2022-12-16T17:49:15.857Z,-5.30
2022-12-16T17:52:02.198Z,-5.30
2022-12-16T17:54:47.693Z,-5.20
2022-12-16T17:57:32.881Z,-5.20
2022-12-16T18:00:28.563Z,-5.00
2022-12-16T18:03:14.330Z,-5.20
2022-12-16T18:05:59.797Z,-5.20
2022-12-16T18:08:45.425Z,-5.50
2022-12-16T18:11:32.564Z,-5.70
2022-12-16T18:14:21.399Z,-5.80
2022-12-16T18:17:06.764Z,-5.90
2022-12-16T18:19:51.744Z,-5.90
2022-12-16T18:22:37.326Z,-6.00
2022-12-16T18:25:22.667Z,-5.80
2022-12-16T18:28:07.900Z,-6.00
2022-12-16T18:30:55.139Z,-6.10
2022-12-16T18:33:40.257Z,-6.10
2022-12-16T18:36:25.843Z,-6.20
2022-12-16T18:39:11.181Z,-6.20
2022-12-16T18:42:01.561Z,-6.30
2022-12-16T18:44:47.147Z,-6.30
2022-12-16T18:47:32.417Z,-6.40
2022-12-16T18:50:20.103Z,-6.50
2022-12-16T18:53:09.089Z,-6.50
2022-12-16T18:55:55.020Z,-6.60
2022-12-16T18:58:51.206Z,-6.70
2022-12-16T19:01:37.678Z,-6.70
2022-12-16T19:04:22.964Z,-6.40
2022-12-16T19:07:08.196Z,-6.30
2022-12-16T19:09:53.892Z,-6.10
2022-12-16T19:12:39.208Z,-6.10
2022-12-16T19:15:24.795Z,-6.00
2022-12-16T19:18:11.069Z,-6.00
2022-12-16T19:20:56.761Z,-6.20
2022-12-16T19:23:42.031Z,-6.40
2022-12-16T19:26:27.170Z,-6.40
2022-12-16T19:29:12.738Z,-6.50
2022-12-16T19:31:58.029Z,-6.70
2022-12-16T19:34:43.622Z,-6.70
2022-12-16T19:37:28.822Z,-6.70
2022-12-16T19:40:14.079Z,-6.60
2022-12-16T19:42:59.420Z,-6.70
2022-12-16T19:45:45.064Z,-6.90
2022-12-16T19:48:30.461Z,-7.00
2022-12-16T19:51:20.299Z,-7.10
2022-12-16T19:54:06.758Z,-7.20
2022-12-16T19:56:52.533Z,-7.20
2022-12-16T19:59:40.723Z,-7.20
2022-12-16T20:02:29.121Z,-7.30
2022-12-16T20:05:14.747Z,-7.20
2022-12-16T20:08:00.194Z,-7.10
2022-12-16T20:10:45.485Z,-7.20
2022-12-16T20:13:31.182Z,-7.10
2022-12-16T20:16:24.692Z,-7.30
2022-12-16T20:19:10.061Z,-7.40
2022-12-16T20:21:56.322Z,-7.50
2022-12-16T20:24:41.914Z,-7.60
2022-12-16T20:27:27.095Z,-7.40
2022-12-16T20:30:12.603Z,-7.50
2022-12-16T20:32:58.201Z,-7.50
2022-12-16T20:35:43.321Z,-7.50
2022-12-16T20:38:28.591Z,-7.40
2022-12-16T20:41:15.415Z,-7.30
2022-12-16T20:44:00.935Z,-7.20
2022-12-16T20:46:47.146Z,-7.20
2022-12-16T20:49:32.878Z,-7.40
2022-12-16T20:52:18.182Z,-7.50
2022-12-16T20:55:03.688Z,-7.50
2022-12-16T20:57:49.158Z,-7.60
2022-12-16T21:00:34.690Z,-7.70
2022-12-16T21:03:19.972Z,-7.80
2022-12-16T21:06:05.399Z,-7.80
2022-12-16T21:08:51.025Z,-7.60
2022-12-16T21:11:36.787Z,-7.60
2022-12-16T21:14:22.251Z,-7.80
2022-12-16T21:17:07.862Z,-7.80
2022-12-16T21:19:53.226Z,-7.80
2022-12-16T21:22:41.340Z,-8.00
2022-12-16T21:25:27.206Z,-8.10
2022-12-16T21:28:18.420Z,-8.10
2022-12-16T21:31:04.179Z,-8.10
2022-12-16T21:33:49.925Z,-8.10
2022-12-16T21:36:35.587Z,-8.00
2022-12-16T21:39:21.073Z,-7.90
2022-12-16T21:42:06.067Z,-7.90
2022-12-16T21:44:51.605Z,-8.00
2022-12-16T21:47:37.059Z,-8.30
2022-12-16T21:50:23.017Z,-8.30
2022-12-16T21:53:08.356Z,-8.30
2022-12-16T21:55:53.624Z,-8.50
2022-12-16T21:58:38.773Z,-8.50
2022-12-16T22:01:24.103Z,-8.40
2022-12-16T22:04:09.352Z,-8.10
2022-12-16T22:06:54.701Z,-8.20
2022-12-16T22:09:40.414Z,-8.30
2022-12-16T22:12:25.659Z,-8.40
2022-12-16T22:15:11.154Z,-8.40
2022-12-16T22:17:58.578Z,-8.40
2022-12-16T22:20:44.686Z,-8.50
2022-12-16T22:23:30.190Z,-8.50
2022-12-16T22:26:17.078Z,-8.50
2022-12-16T22:29:02.323Z,-8.30
2022-12-16T22:31:47.653Z,-8.20
2022-12-16T22:34:33.721Z,-8.40
2022-12-16T22:37:18.989Z,-8.60
2022-12-16T22:40:04.475Z,-8.70
2022-12-16T22:42:49.757Z,-8.60
2022-12-16T22:45:35.426Z,-8.70
2022-12-16T22:48:20.865Z,-8.70
2022-12-16T22:51:06.134Z,-8.70
2022-12-16T22:53:51.462Z,-8.50
2022-12-16T22:56:37.189Z,-8.30
2022-12-16T22:59:30.021Z,-8.40
2022-12-16T23:02:15.446Z,-8.50
2022-12-16T23:05:01.053Z,-8.60
2022-12-16T23:07:46.346Z,-8.70
2022-12-16T23:10:31.825Z,-8.70
2022-12-16T23:13:17.223Z,-8.60
2022-12-16T23:16:02.713Z,-8.50
2022-12-16T23:18:48.189Z,-8.50
2022-12-16T23:21:35.250Z,-8.60
2022-12-16T23:24:25.087Z,-8.60
2022-12-16T23:27:10.399Z,-8.60
2022-12-16T23:29:56.661Z,-8.60
2022-12-16T23:32:43.499Z,-8.50
2022-12-16T23:35:29.157Z,-8.40
2022-12-16T23:38:25.624Z,-8.30
2022-12-16T23:41:17.322Z,-8.50
2022-12-16T23:44:02.955Z,-8.50
2022-12-16T23:46:48.752Z,-8.50
2022-12-16T23:49:34.035Z,-8.40
2022-12-16T23:52:19.199Z,-8.40
2022-12-16T23:55:04.410Z,-8.40
2022-12-16T23:57:49.584Z,-8.30
